Time,TemperatureF,DewpointF,PressureIn,WindDirection,WindDirectionDegrees,WindSpeedMPH,WindSpeedGustMPH,Humidity,HourlyPrecipIn,Conditions,Clouds,dailyrainin,SoftwareType,DateUTC
2013-04-11 00:06:00,48.4,47.0,29.91,NW,320,0.0,-999.0,96,-99.99,,,0.00,weatherlink.com 1.10,2013-04-11 04:06:00,
2013-04-11 00:21:00,48.3,48.0,29.92,NW,320,0.0,-999.0,97,-99.99,,,0.01,weatherlink.com 1.10,2013-04-11 04:21:00,
2013-04-11 00:36:00,48.3,48.0,29.91,NW,320,0.0,-999.0,97,-99.99,,,0.02,weatherlink.com 1.10,2013-04-11 04:36:00,
2013-04-11 00:51:00,48.2,47.0,29.91,NW,320,0.0,-999.0,97,-99.99,,,0.04,weatherlink.com 1.10,2013-04-11 04:51:00,
2013-04-11 01:06:00,47.7,47.0,29.91,NW,320,0.0,-999.0,97,-99.99,,,0.05,weatherlink.com 1.10,2013-04-11 05:06:00,
2013-04-11 01:21:00,47.4,47.0,29.92,NW,320,0.0,-999.0,97,-99.99,,,0.05,weatherlink.com 1.10,2013-04-11 05:21:00,
2013-04-11 01:36:00,47.3,47.0,29.91,NW,320,0.0,-999.0,97,-99.99,,,0.06,weatherlink.com 1.10,2013-04-11 05:36:00,
2013-04-11 01:51:00,47.0,46.0,29.90,NW,320,0.0,-999.0,97,-99.99,,,0.06,weatherlink.com 1.10,2013-04-11 05:51:00,
2013-04-11 02:06:00,46.9,46.0,29.89,NW,320,0.0,-999.0,97,-99.99,,,0.07,weatherlink.com 1.10,2013-04-11 06:06:00,
2013-04-11 02:51:00,46.3,46.0,29.88,NW,320,0.0,-999.0,97,-99.99,,,0.07,weatherlink.com 1.10,2013-04-11 06:51:00,
2013-04-11 03:06:00,46.2,45.0,29.88,NW,320,0.0,-999.0,97,-99.99,,,0.07,weatherlink.com 1.10,2013-04-11 07:06:00,
2013-04-11 03:21:00,46.1,45.0,29.89,NW,320,0.0,-999.0,97,-99.99,,,0.07,weatherlink.com 1.10,2013-04-11 07:21:00,
2013-04-11 03:36:00,46.0,45.0,29.89,NW,320,0.0,-999.0,97,-99.99,,,0.07,weatherlink.com 1.10,2013-04-11 07:36:00,
2013-04-11 03:51:00,45.9,45.0,29.89,NW,320,0.0,-999.0,97,-99.99,,,0.07,weatherlink.com 1.10,2013-04-11 07:51:00,
2013-04-11 04:06:00,45.7,45.0,29.89,NW,320,0.0,-999.0,97,-99.99,,,0.07,weatherlink.com 1.10,2013-04-11 08:06:00,
2013-04-11 04:21:00,45.3,45.0,29.89,NW,320,0.0,-999.0,97,-99.99,,,0.07,weatherlink.com 1.10,2013-04-11 08:21:00,
2013-04-11 04:36:00,45.1,44.0,29.89,NW,320,0.0,-999.0,97,-99.99,,,0.07,weatherlink.com 1.10,2013-04-11 08:36:00,
2013-04-11 04:51:00,45.0,44.0,29.88,NW,320,0.0,-999.0,97,-99.99,,,0.07,weatherlink.com 1.10,2013-04-11 08:51:00,
2013-04-11 05:06:00,44.8,44.0,29.90,NW,320,0.0,-999.0,97,-99.99,,,0.07,weatherlink.com 1.10,2013-04-11 09:06:00,
2013-04-11 05:21:00,44.6,44.0,29.92,NW,320,0.0,-999.0,97,-99.99,,,0.07,weatherlink.com 1.10,2013-04-11 09:21:00,
2013-04-11 05:36:00,44.5,44.0,29.91,NW,320,0.0,-999.0,97,-99.99,,,0.07,weatherlink.com 1.10,2013-04-11 09:36:00,
2013-04-11 05:51:00,44.4,44.0,29.93,NW,320,0.0,-999.0,97,-99.99,,,0.07,weatherlink.com 1.10,2013-04-11 09:51:00,
2013-04-11 06:06:00,44.2,43.0,29.94,NW,320,0.0,-999.0,97,-99.99,,,0.07,weatherlink.com 1.10,2013-04-11 10:06:00,
2013-04-11 06:21:00,44.1,43.0,29.95,NW,320,0.0,-999.0,97,-99.99,,,0.07,weatherlink.com 1.10,2013-04-11 10:21:00,
2013-04-11 06:36:00,43.9,43.0,29.96,NW,320,0.0,-999.0,97,-99.99,,,0.07,weatherlink.com 1.10,2013-04-11 10:36:00,
2013-04-11 06:51:00,43.9,43.0,29.97,NW,320,0.0,-999.0,97,-99.99,,,0.07,weatherlink.com 1.10,2013-04-11 10:51:00,
2013-04-11 07:06:00,43.6,43.0,29.97,NW,320,0.0,-999.0,97,-99.99,,,0.07,weatherlink.com 1.10,2013-04-11 11:06:00,
2013-04-11 07:21:00,43.4,43.0,29.98,NW,320,0.0,-999.0,97,-99.99,,,0.07,weatherlink.com 1.10,2013-04-11 11:21:00,
2013-04-11 07:36:00,43.1,42.0,29.98,NW,320,0.0,-999.0,97,-99.99,,,0.07,weatherlink.com 1.10,2013-04-11 11:36:00,
2013-04-11 07:51:00,43.1,42.0,30.00,NW,320,0.0,-999.0,97,-99.99,,,0.07,weatherlink.com 1.10,2013-04-11 11:51:00,
2013-04-11 08:06:00,43.3,43.0,30.00,NW,320,0.0,-999.0,97,-99.99,,,0.07,weatherlink.com 1.10,2013-04-11 12:06:00,
2013-04-11 08:36:00,43.7,43.0,29.99,NW,320,0.0,-999.0,97,-99.99,,,0.07,weatherlink.com 1.10,2013-04-11 12:36:00,
2013-04-11 08:51:00,43.9,43.0,30.00,NW,320,0.0,-999.0,97,-99.99,,,0.07,weatherlink.com 1.10,2013-04-11 12:51:00,
2013-04-11 09:06:00,43.8,43.0,30.01,NW,320,0.0,-999.0,97,-99.99,,,0.07,weatherlink.com 1.10,2013-04-11 13:06:00,
2013-04-11 09:21:00,44.2,43.0,30.02,WNW,286,0.0,-999.0,97,-99.99,,,0.07,weatherlink.com 1.10,2013-04-11 13:21:00,
2013-04-11 09:36:00,44.6,43.0,30.02,WNW,286,0.0,-999.0,95,-99.99,,,0.07,weatherlink.com 1.10,2013-04-11 13:36:00,
2013-04-11 09:52:00,45.4,43.0,30.03,WNW,286,0.0,-999.0,92,-99.99,,,0.07,weatherlink.com 1.10,2013-04-11 13:52:00,
2013-04-11 10:06:00,45.7,43.0,30.03,SW,229,1.0,-999.0,89,-99.99,,,0.07,weatherlink.com 1.10,2013-04-11 14:06:00,
2013-04-11 10:22:00,46.3,43.0,30.03,SSW,208,0.0,-999.0,88,-99.99,,,0.07,weatherlink.com 1.10,2013-04-11 14:22:00,
2013-04-11 10:37:00,46.3,41.0,30.03,NNW,348,1.0,-999.0,83,-99.99,,,0.07,weatherlink.com 1.10,2013-04-11 14:37:00,
2013-04-11 10:52:00,47.9,42.0,30.04,NW,304,0.0,-999.0,81,-99.99,,,0.07,weatherlink.com 1.10,2013-04-11 14:52:00,
2013-04-11 11:07:00,49.8,41.0,30.05,WSW,246,3.0,-999.0,72,-99.99,,,0.07,weatherlink.com 1.10,2013-04-11 15:07:00,
2013-04-11 11:22:00,50.1,44.0,30.06,NE,53,0.0,-999.0,78,-99.99,,,0.07,weatherlink.com 1.10,2013-04-11 15:22:00,
2013-04-11 11:37:00,51.3,43.0,30.06,SSE,163,0.0,-999.0,72,-99.99,,,0.07,weatherlink.com 1.10,2013-04-11 15:37:00,
2013-04-11 11:52:00,51.4,41.0,30.07,WSW,249,1.0,-999.0,67,-99.99,,,0.07,weatherlink.com 1.10,2013-04-11 15:52:00,
2013-04-11 12:07:00,51.7,40.0,30.07,West,272,2.0,-999.0,65,-99.99,,,0.07,weatherlink.com 1.10,2013-04-11 16:07:00,
2013-04-11 12:22:00,52.2,38.0,30.07,NW,311,1.0,-999.0,60,-99.99,,,0.07,weatherlink.com 1.10,2013-04-11 16:22:00,
2013-04-11 12:37:00,51.4,36.0,30.06,West,281,0.0,-999.0,55,-99.99,,,0.07,weatherlink.com 1.10,2013-04-11 16:37:00,
2013-04-11 12:52:00,51.2,38.0,30.06,WNW,288,0.0,-999.0,60,-99.99,,,0.07,weatherlink.com 1.10,2013-04-11 16:52:00,
2013-04-11 13:07:00,50.9,35.0,30.07,WSW,241,0.0,-999.0,56,-99.99,,,0.07,weatherlink.com 1.10,2013-04-11 17:07:00,
2013-04-11 13:22:00,50.5,36.0,30.06,NW,322,0.0,-999.0,57,-99.99,,,0.07,weatherlink.com 1.10,2013-04-11 17:22:00,
2013-04-11 13:37:00,49.3,34.0,30.06,WNW,303,0.0,-999.0,55,-99.99,,,0.07,weatherlink.com 1.10,2013-04-11 17:37:00,
2013-04-11 13:52:00,49.0,30.0,30.07,SE,127,1.0,-999.0,49,-99.99,,,0.07,weatherlink.com 1.10,2013-04-11 17:52:00,
2013-04-11 14:07:00,47.8,31.0,30.07,WNW,295,0.0,-999.0,53,-99.99,,,0.07,weatherlink.com 1.10,2013-04-11 18:07:00,
2013-04-11 14:22:00,48.9,33.0,30.07,NNW,328,1.0,-999.0,54,-99.99,,,0.07,weatherlink.com 1.10,2013-04-11 18:22:00,
2013-04-11 14:37:00,48.5,34.0,30.08,West,278,0.0,-999.0,57,-99.99,,,0.07,weatherlink.com 1.10,2013-04-11 18:37:00,
2013-04-11 14:52:00,48.5,32.0,30.07,West,274,0.0,-999.0,54,-99.99,,,0.07,weatherlink.com 1.10,2013-04-11 18:52:00,
2013-04-11 15:07:00,48.3,33.0,30.07,West,281,0.0,-999.0,56,-99.99,,,0.07,weatherlink.com 1.10,2013-04-11 19:07:00,
2013-04-11 15:22:00,49.2,35.0,30.06,WNW,285,1.0,-999.0,58,-99.99,,,0.07,weatherlink.com 1.10,2013-04-11 19:22:00,
2013-04-11 15:38:00,49.5,34.0,30.07,WSW,248,0.0,-999.0,56,-99.99,,,0.07,weatherlink.com 1.10,2013-04-11 19:38:00,
2013-04-11 15:52:00,48.8,34.0,30.06,South,191,0.0,-999.0,56,-99.99,,,0.07,weatherlink.com 1.10,2013-04-11 19:52:00,
2013-04-11 16:07:00,48.1,33.0,30.06,South,191,0.0,-999.0,57,-99.99,,,0.07,weatherlink.com 1.10,2013-04-11 20:07:00,
2013-04-11 16:22:00,47.6,32.0,30.07,SSE,163,0.0,-999.0,56,-99.99,,,0.07,weatherlink.com 1.10,2013-04-11 20:22:00,
2013-04-11 16:37:00,47.6,33.0,30.07,SSE,154,0.0,-999.0,57,-99.99,,,0.07,weatherlink.com 1.10,2013-04-11 20:37:00,
2013-04-11 16:52:00,47.3,33.0,30.07,SSE,154,0.0,-999.0,59,-99.99,,,0.07,weatherlink.com 1.10,2013-04-11 20:52:00,
2013-04-11 17:07:00,47.2,34.0,30.08,SSE,154,0.0,-999.0,60,-99.99,,,0.07,weatherlink.com 1.10,2013-04-11 21:07:00,
2013-04-11 17:22:00,46.6,33.0,30.08,SSE,154,0.0,-999.0,59,-99.99,,,0.07,weatherlink.com 1.10,2013-04-11 21:22:00,
2013-04-11 17:37:00,46.3,33.0,30.09,SSE,154,0.0,-999.0,61,-99.99,,,0.07,weatherlink.com 1.10,2013-04-11 21:37:00,
2013-04-11 17:52:00,45.8,34.0,30.10,SSE,154,0.0,-999.0,64,-99.99,,,0.07,weatherlink.com 1.10,2013-04-11 21:52:00,
2013-04-11 18:07:00,45.2,34.0,30.11,SSE,162,0.0,-999.0,64,-99.99,,,0.07,weatherlink.com 1.10,2013-04-11 22:07:00,
2013-04-11 18:22:00,44.4,33.0,30.12,SSE,162,0.0,-999.0,64,-99.99,,,0.07,weatherlink.com 1.10,2013-04-11 22:22:00,
2013-04-11 18:37:00,43.6,32.0,30.12,SSE,162,0.0,-999.0,63,-99.99,,,0.07,weatherlink.com 1.10,2013-04-11 22:37:00,
2013-04-11 18:52:00,42.7,31.0,30.13,SSE,162,0.0,-999.0,63,-99.99,,,0.07,weatherlink.com 1.10,2013-04-11 22:52:00,
2013-04-11 19:07:00,41.9,28.0,30.12,SSE,163,0.0,-999.0,59,-99.99,,,0.07,weatherlink.com 1.10,2013-04-11 23:07:00,
2013-04-11 19:22:00,41.4,28.0,30.12,SSE,163,0.0,-999.0,60,-99.99,,,0.07,weatherlink.com 1.10,2013-04-11 23:22:00,
2013-04-11 19:37:00,41.1,30.0,30.13,SSE,163,0.0,-999.0,64,-99.99,,,0.07,weatherlink.com 1.10,2013-04-11 23:37:00,
2013-04-11 19:52:00,40.8,31.0,30.13,SSE,163,0.0,-999.0,67,-99.99,,,0.07,weatherlink.com 1.10,2013-04-11 23:52:00,
2013-04-11 20:07:00,40.5,31.0,30.13,West,272,0.0,-999.0,69,-99.99,,,0.07,weatherlink.com 1.10,2013-04-12 00:07:00,
2013-04-11 20:22:00,40.4,31.0,30.13,West,272,0.0,-999.0,69,-99.99,,,0.07,weatherlink.com 1.10,2013-04-12 00:22:00,
2013-04-11 20:37:00,40.2,31.0,30.14,West,272,0.0,-999.0,70,-99.99,,,0.07,weatherlink.com 1.10,2013-04-12 00:37:00,
2013-04-11 20:52:00,40.0,31.0,30.14,West,272,0.0,-999.0,69,-99.99,,,0.07,weatherlink.com 1.10,2013-04-12 00:52:00,
2013-04-11 21:07:00,39.8,31.0,30.16,West,272,0.0,-999.0,70,-99.99,,,0.07,weatherlink.com 1.10,2013-04-12 01:07:00,
2013-04-11 21:23:00,39.7,31.0,30.16,West,272,0.0,-999.0,71,-99.99,,,0.07,weatherlink.com 1.10,2013-04-12 01:23:00,
2013-04-11 21:38:00,39.6,31.0,30.17,West,272,0.0,-999.0,71,-99.99,,,0.07,weatherlink.com 1.10,2013-04-12 01:38:00,
2013-04-11 21:53:00,39.4,32.0,30.16,West,272,0.0,-999.0,74,-99.99,,,0.07,weatherlink.com 1.10,2013-04-12 01:53:00,
2013-04-11 22:08:00,38.9,33.0,30.17,West,272,0.0,-999.0,80,-99.99,,,0.08,weatherlink.com 1.10,2013-04-12 02:08:00,
2013-04-11 22:23:00,38.2,34.0,30.18,West,272,0.0,-999.0,85,-99.99,,,0.08,weatherlink.com 1.10,2013-04-12 02:23:00,
2013-04-11 22:37:00,37.7,35.0,30.18,West,272,0.0,-999.0,88,-99.99,,,0.08,weatherlink.com 1.10,2013-04-12 02:37:00,
2013-04-11 22:53:00,37.6,35.0,30.17,West,272,0.0,-999.0,90,-99.99,,,0.08,weatherlink.com 1.10,2013-04-12 02:53:00,
2013-04-11 23:08:00,37.6,35.0,30.17,West,272,0.0,-999.0,90,-99.99,,,0.08,weatherlink.com 1.10,2013-04-12 03:08:00,
2013-04-11 23:23:00,37.7,35.0,30.17,West,272,0.0,-999.0,91,-99.99,,,0.08,weatherlink.com 1.10,2013-04-12 03:23:00,
2013-04-11 23:38:00,37.7,35.0,30.18,West,272,0.0,-999.0,91,-99.99,,,0.08,weatherlink.com 1.10,2013-04-12 03:38:00,
2013-04-11 23:53:00,37.9,36.0,30.19,West,272,0.0,-999.0,92,-99.99,,,0.08,weatherlink.com 1.10,2013-04-12 03:53:00,